^^
Grace C. Lehan Memorial Weather Station Historical Data
Daily Summary for April 4, 2022 Units:  English    Metric   Both
Daily Weekly Monthly Yearly
  High: Low: Average:
Temperature: 43.7 °F 28.6 °F 37.8 °F
Dew Point: 34.3 °F 25 °F 27.2 °F
Humidity: 86% 52.3% 66%
Wind Speed: 8.2mph 0mph 1.4mph
Wind Gust: 20mph - -
Wind- - NW
Pressure: 30.17 in 30.05 in -
Precipitation: 0.00 in    
 
 
Tabular Data for April 4, 2022
Time Temperature Dew Point Pressure Wind Wind Speed Wind Gust Humidity Rainfall Rate (Hourly) solar
00:04 42.8 °F 34.3 °F 30.05 in NW 2.4 mph 18 mph 71.6% 0.00 in 0 W/m2
00:09 42.6 °F 33.9 °F 30.05 in NW 1.7 mph 12 mph 71.2% 0.00 in 0 W/m2
00:14 42.4 °F 33.7 °F 30.05 in NW 1.4 mph 12 mph 71% 0.00 in 0 W/m2
00:19 42.2 °F 33.5 °F 30.05 in WNW 1.5 mph 12 mph 71% 0.00 in 0 W/m2
00:24 42 °F 33.3 °F 30.05 in NW 3.3 mph 12 mph 71% 0.00 in 0 W/m2
00:29 41.9 °F 33.2 °F 30.05 in NW 2.4 mph 12 mph 71% 0.00 in 0 W/m2
00:34 41.9 °F 33.2 °F 30.06 in NNW 1 mph 12 mph 71% 0.00 in 0 W/m2
00:39 41.8 °F 33.1 °F 30.06 in NW 2.4 mph 10 mph 71% 0.00 in 0 W/m2
00:44 41.6 °F 32.6 °F 30.06 in NNW 0.2 mph 10 mph 70.1% 0.00 in 0 W/m2
00:49 41.5 °F 32.4 °F 30.06 in NW 1.9 mph 11 mph 70% 0.00 in 0 W/m2
00:54 41.3 °F 31.9 °F 30.06 in WNW 3.3 mph 11 mph 69% 0.00 in 0 W/m2
00:59 41.1 °F 31.8 °F 30.06 in WNW 1 mph 11 mph 69% 0.00 in 0 W/m2
01:04 41 °F 31.6 °F 30.06 in WNW 4.3 mph 19 mph 69% 0.00 in 0 W/m2
01:09 40.9 °F 31 °F 30.06 in NW 5.8 mph 19 mph 67.6% 0.00 in 0 W/m2
01:14 40.8 °F 30.7 °F 30.06 in WNW 5.4 mph 19 mph 67% 0.00 in 0 W/m2
01:19 40.7 °F 30.5 °F 30.07 in NW 6.9 mph 19 mph 66.6% 0.00 in 0 W/m2
01:24 40.6 °F 30 °F 30.07 in NW 4.2 mph 19 mph 65.6% 0.00 in 0 W/m2
01:29 40.5 °F 29.7 °F 30.07 in NNW 0.6 mph 19 mph 65% 0.00 in 0 W/m2
01:34 40.4 °F 29.5 °F 30.07 in NW 2.8 mph 19 mph 65% 0.00 in 0 W/m2
01:39 40.2 °F 29.2 °F 30.08 in NW 2.6 mph 13 mph 64.7% 0.00 in 0 W/m2
01:44 40 °F 28.8 °F 30.08 in NW 8 mph 20 mph 64% 0.00 in 0 W/m2
01:49 40 °F 28.8 °F 30.08 in NW 5 mph 20 mph 64% 0.00 in 0 W/m2
01:54 40 °F 28.5 °F 30.09 in NW 4.9 mph 20 mph 63.3% 0.00 in 0 W/m2
01:59 40 °F 28.4 °F 30.09 in NW 1.9 mph 20 mph 63% 0.00 in 0 W/m2
02:04 39.9 °F 28.6 °F 30.09 in NW 0.1 mph 20 mph 63.5% 0.00 in 0 W/m2
02:09 39.8 °F 28.5 °F 30.09 in NW 1.2 mph 9 mph 63.7% 0.00 in 0 W/m2
02:14 39.6 °F 28.3 °F 30.09 in NW 2.6 mph 11 mph 63.5% 0.00 in 0 W/m2
02:19 39.5 °F 28.2 °F 30.08 in Calm   11 mph 63.6% 0.00 in 0 W/m2
02:24 39.4 °F 28.2 °F 30.09 in NW 2.5 mph 11 mph 64% 0.00 in 0 W/m2
02:29 39.2 °F 28.1 °F 30.09 in NW 5.3 mph 15 mph 64% 0.00 in 0 W/m2
02:34 39.2 °F 28.1 °F 30.09 in NW 1.1 mph 15 mph 64% 0.00 in 0 W/m2
02:39 39.2 °F 28 °F 30.10 in NNW 2.4 mph 10 mph 64% 0.00 in 0 W/m2
02:44 39.1 °F 28 °F 30.10 in NW 1.8 mph 12 mph 64% 0.00 in 0 W/m2
02:49 39 °F 27.9 °F 30.10 in NW 2 mph 12 mph 64% 0.00 in 0 W/m2
02:54 38.9 °F 27.7 °F 30.10 in NW 1.2 mph 12 mph 64% 0.00 in 0 W/m2
02:59 38.7 °F 27.9 °F 30.09 in NNW 0.3 mph 12 mph 64.8% 0.00 in 0 W/m2
03:04 38.6 °F 27.9 °F 30.09 in Calm   12 mph 65% 0.00 in 0 W/m2
03:09 38.5 °F 27.7 °F 30.09 in NNW 0.7 mph 5 mph 65% 0.00 in 0 W/m2
03:14 38.3 °F 27.7 °F 30.09 in NNW 0.5 mph 7 mph 65.3% 0.00 in 0 W/m2
03:19 38.2 °F 27.8 °F 30.08 in NW 1.5 mph 7 mph 66% 0.00 in 0 W/m2
03:24 38 °F 27.7 °F 30.08 in NW 1 mph 7 mph 66% 0.00 in 0 W/m2
03:29 38 °F 27.6 °F 30.08 in NW 0.5 mph 7 mph 66% 0.00 in 0 W/m2
03:34 37.9 °F 27.5 °F 30.08 in Calm   7 mph 66% 0.00 in 0 W/m2
03:39 37.7 °F 27.4 °F 30.08 in Calm   1 mph 66% 0.00 in 0 W/m2
03:44 37.7 °F 27.4 °F 30.08 in Calm   1 mph 66% 0.00 in 0 W/m2
03:49 37.6 °F 27.4 °F 30.08 in Calm   1 mph 66.4% 0.00 in 0 W/m2
03:54 37.5 °F 27.3 °F 30.08 in Calm   1 mph 66.3% 0.00 in 0 W/m2
03:59 37.4 °F 27.5 °F 30.08 in Calm   1 mph 67% 0.00 in 0 W/m2
04:00 37.4 °F 27.5 °F 30.08 in Calm   1 mph 67% 0.00 in 0 W/m2
04:09 37.2 °F 27.2 °F 30.08 in Calm     67% 0.00 in 0 W/m2
04:14 37 °F 27.4 °F 30.09 in NNW 0.9 mph 9 mph 67.7% 0.00 in 0 W/m2
04:19 36.9 °F 27.4 °F 30.09 in Calm   9 mph 68% 0.00 in 0 W/m2
04:24 36.8 °F 27.3 °F 30.10 in Calm   9 mph 68% 0.00 in 0 W/m2
04:29 36.8 °F 27.3 °F 30.10 in Calm   9 mph 68.3% 0.00 in 0 W/m2
04:34 36.7 °F 27.5 °F 30.09 in Calm   9 mph 69% 0.00 in 0 W/m2
04:39 36.7 °F 27.5 °F 30.10 in Calm     69% 0.00 in 0 W/m2
04:44 36.6 °F 27.4 °F 30.10 in Calm     69% 0.00 in 0 W/m2
04:49 36.6 °F 27.5 °F 30.10 in Calm     69.2% 0.00 in 0 W/m2
04:54 36.5 °F 27.7 °F 30.10 in Calm     70% 0.00 in 0 W/m2
04:59 36.4 °F 27.5 °F 30.10 in Calm   1 mph 70% 0.00 in 0 W/m2
05:04 36.3 °F 27.4 °F 30.10 in NW 0.4 mph 5 mph 70% 0.00 in 0 W/m2
05:09 36.2 °F 27.6 °F 30.10 in NW 2.1 mph 13 mph 70.6% 0.00 in 0 W/m2
05:14 36.2 °F 27.5 °F 30.10 in NW 0.6 mph 13 mph 70.3% 0.00 in 0 W/m2
05:19 36.3 °F 27.5 °F 30.10 in NW 0.5 mph 13 mph 70% 0.00 in 0 W/m2
05:24 36.4 °F 27.6 °F 30.11 in NW 1.2 mph 13 mph 70% 0.00 in 0 W/m2
05:29 36.4 °F 27.3 °F 30.11 in NW 1.4 mph 13 mph 69.1% 0.00 in 0 W/m2
05:34 36.5 °F 27.3 °F 30.11 in NW 1.3 mph 13 mph 69% 0.00 in 0 W/m2
05:39 36.5 °F 27.3 °F 30.11 in NW 0.5 mph 7 mph 69% 0.00 in 0 W/m2
05:44 36.5 °F 27.3 °F 30.11 in NW 0.5 mph 7 mph 69% 0.00 in 0 W/m2
05:49 36.4 °F 27.2 °F 30.12 in Calm   7 mph 69% 0.00 in 0 W/m2
05:54 36.3 °F 27.2 °F 30.12 in Calm   7 mph 69% 0.00 in 0 W/m2
05:59 36.2 °F 27.1 °F 30.12 in NW 0.1 mph 7 mph 69% 0.00 in 0 W/m2
06:04 36.1 °F 27 °F 30.12 in Calm   7 mph 69% 0.00 in 0 W/m2
06:09 36 °F 26.8 °F 30.12 in Calm     69% 0.00 in 0 W/m2
06:14 35.9 °F 26.7 °F 30.12 in Calm   1 mph 69% 0.00 in 0 W/m2
06:19 35.7 °F 26.7 °F 30.13 in Calm   1 mph 69.4% 0.00 in 0 W/m2
06:24 35.6 °F 26.8 °F 30.13 in Calm   2 mph 70% 0.00 in 0 W/m2
06:29 35.5 °F 26.7 °F 30.13 in Calm   2 mph 70% 0.00 in 0 W/m2
06:34 35.5 °F 26.7 °F 30.13 in NW 0.6 mph 6 mph 70% 0.00 in 0 W/m2
06:39 35.4 °F 26.7 °F 30.14 in Calm   6 mph 70.2% 0.00 in 0 W/m2
06:44 35.5 °F 27 °F 30.14 in Calm   6 mph 71% 0.00 in 0 W/m2
06:49 35.6 °F 27.1 °F 30.14 in NW 0.3 mph 7 mph 71.1% 0.00 in 0 W/m2
06:54 35.6 °F 27.3 °F 30.15 in Calm   7 mph 71.5% 0.00 in 0 W/m2
06:59 35.7 °F 27.6 °F 30.15 in Calm   7 mph 72% 0.00 in 0 W/m2
07:04 35.7 °F 27.6 °F 30.15 in Calm   7 mph 72% 0.00 in 5 W/m2
07:09 35.7 °F 27.6 °F 30.15 in Calm   1 mph 72% 0.00 in 9 W/m2
07:14 35.6 °F 27.5 °F 30.15 in WNW 0.2 mph 6 mph 72% 0.00 in 11 W/m2
07:19 35.6 °F 27.6 °F 30.15 in Calm   6 mph 72.3% 0.00 in 16 W/m2
07:24 35.6 °F 27.6 °F 30.16 in Calm   6 mph 72.4% 0.00 in 26 W/m2
07:29 35.6 °F 27.5 °F 30.16 in Calm   6 mph 72.2% 0.00 in 33 W/m2
07:34 35.6 °F 27.8 °F 30.16 in Calm   6 mph 73% 0.00 in 76 W/m2
07:38 35.7 °F 28.2 °F 30.16 in Calm     73.9% 0.00 in 65 W/m2
08:09 37.2 °F 29.1 °F 30.17 in Calm   1 mph 72.3% 0.00 in 81 W/m2
08:14 37.5 °F 28.6 °F 30.17 in WNW 0.6 mph 9 mph 69.9% 0.00 in 81 W/m2
08:19 37.7 °F 28.6 °F 30.16 in Calm   9 mph 69.2% 0.00 in 135 W/m2
08:24 38 °F 28.8 °F 30.16 in Calm   9 mph 69% 0.00 in 216 W/m2
08:29 38.4 °F 28.6 °F 30.16 in WNW 0.5 mph 9 mph 67.5% 0.00 in 135 W/m2
08:34 38.8 °F 28.3 °F 30.16 in NW 3.3 mph 11 mph 65.6% 0.00 in 72 W/m2
08:39 39.1 °F 27.8 °F 30.16 in NW 5.8 mph 14 mph 63.3% 0.00 in 211 W/m2
08:44 39.4 °F 27.4 °F 30.16 in WNW 5.2 mph 14 mph 61.8% 0.00 in 211 W/m2
08:49 39.5 °F 27.2 °F 30.16 in WNW 2.8 mph 14 mph 61% 0.00 in 192 W/m2
08:54 39.7 °F 27.4 °F 30.16 in NW 1.6 mph 14 mph 61.2% 0.00 in 172 W/m2
08:59 39.9 °F 27.5 °F 30.16 in WNW 2.7 mph 14 mph 60.8% 0.00 in 137 W/m2
09:04 40 °F 27.6 °F 30.16 in NW 2.4 mph 14 mph 60.7% 0.00 in 169 W/m2
09:09 40.1 °F 27.1 °F 30.16 in NNW 4.5 mph 17 mph 59.3% 0.00 in 248 W/m2
09:14 40.2 °F 27.3 °F 30.16 in NW 4.9 mph 17 mph 59.6% 0.00 in 167 W/m2
09:19 40.4 °F 27.4 °F 30.16 in WNW 3.1 mph 17 mph 59.5% 0.00 in 241 W/m2
09:24 40.6 °F 27.2 °F 30.16 in NW 4.6 mph 17 mph 58.5% 0.00 in 241 W/m2
09:29 40.8 °F 27.5 °F 30.16 in NNW 0.9 mph 17 mph 58.9% 0.00 in 148 W/m2
09:34 41 °F 28 °F 30.16 in WNW 2.2 mph 17 mph 59.5% 0.00 in 220 W/m2
09:39 41.4 °F 28.6 °F 30.15 in WNW 0.7 mph 11 mph 59.9% 0.00 in 185 W/m2
09:44 41.8 °F 27.6 °F 30.16 in WNW 6.4 mph 15 mph 57% 0.00 in 155 W/m2
09:49 41.8 °F 27.8 °F 30.16 in NW 2.5 mph 15 mph 57.3% 0.00 in 176 W/m2
09:54 41.9 °F 27.9 °F 30.16 in NW 2.9 mph 15 mph 57.2% 0.00 in 188 W/m2
09:59 42.2 °F 28.4 °F 30.16 in WNW 2.6 mph 15 mph 57.8% 0.00 in 188 W/m2
10:04 42.5 °F 28.3 °F 30.16 in NW 4 mph 15 mph 56.9% 0.00 in 348 W/m2
10:09 42.8 °F 27.9 °F 30.16 in NW 5.1 mph 14 mph 55.3% 0.00 in 374 W/m2
10:14 43.2 °F 28.6 °F 30.16 in NNW 4.2 mph 14 mph 56% 0.00 in 441 W/m2
10:19 43.4 °F 27.9 °F 30.16 in NW 5 mph 16 mph 54% 0.00 in 441 W/m2
10:24 42.9 °F 27.5 °F 30.15 in NW 6.7 mph 17 mph 54.1% 0.00 in 114 W/m2
10:29 42.3 °F 27.4 °F 30.15 in NW 4.4 mph 17 mph 55.2% 0.00 in 218 W/m2
10:34 42.2 °F 27.3 °F 30.15 in NNW 5 mph 17 mph 55.3% 0.00 in 176 W/m2
10:39 42.2 °F 27.8 °F 30.15 in WNW 2.4 mph 14 mph 56.3% 0.00 in 424 W/m2
10:44 42.7 °F 28.4 °F 30.15 in NW 4.1 mph 14 mph 56.7% 0.00 in 420 W/m2
10:49 43.2 °F 28 °F 30.15 in WNW 8.2 mph 19 mph 54.8% 0.00 in 218 W/m2
10:54 43.1 °F 27.1 °F 30.14 in WNW 6.6 mph 19 mph 53% 0.00 in 207 W/m2
10:59 42.9 °F 27.6 °F 30.14 in WNW 3.6 mph 19 mph 54.5% 0.00 in 190 W/m2
11:04 42.9 °F 27.8 °F 30.13 in WNW 3.8 mph 19 mph 54.7% 0.00 in 62 W/m2
11:09 43 °F 27.8 °F 30.13 in WNW 2.7 mph 13 mph 54.7% 0.00 in 63 W/m2
11:14 43.2 °F 28.3 °F 30.13 in NW 5.8 mph 16 mph 55.4% 0.00 in 125 W/m2
11:19 43.4 °F 28 °F 30.13 in NW 4.3 mph 16 mph 54.3% 0.00 in 151 W/m2
11:24 43.5 °F 28.7 °F 30.12 in NW 1.8 mph 16 mph 55.6% 0.00 in 269 W/m2
11:29 43.7 °F 28.2 °F 30.12 in NW 4.5 mph 16 mph 54% 0.00 in 221 W/m2
11:34 43.7 °F 27.9 °F 30.12 in NW 2.8 mph 16 mph 53.5% 0.00 in 221 W/m2
11:39 43.6 °F 27.8 °F 30.12 in NW 4.4 mph 13 mph 53.3% 0.00 in 272 W/m2
11:44 43.6 °F 27.6 °F 30.12 in NW 4 mph 13 mph 53% 0.00 in 352 W/m2
11:49 43.6 °F 27.4 °F 30.12 in NW 5.5 mph 15 mph 52.7% 0.00 in 367 W/m2
11:54 43.4 °F 27 °F 30.11 in WNW 5.9 mph 15 mph 52.3% 0.00 in 209 W/m2
11:59 43.2 °F 27.3 °F 30.11 in NW 3.8 mph 15 mph 53.1% 0.00 in 353 W/m2
12:00 43.2 °F 27.7 °F 30.11 in North 1 mph 15 mph 54% 0.00 in 374 W/m2
12:09 43.2 °F 27.4 °F 30.11 in NW 4.8 mph 15 mph 53.2% 0.00 in 244 W/m2
12:14 43.2 °F 27.6 °F 30.11 in NW 3.3 mph 15 mph 53.7% 0.00 in 279 W/m2
12:19 43.3 °F 27.8 °F 30.11 in WNW 3 mph 15 mph 54.1% 0.00 in 195 W/m2
12:24 43.2 °F 27.8 °F 30.11 in WNW 7.4 mph 15 mph 54.4% 0.00 in 183 W/m2
12:29 42.9 °F 27.1 °F 30.11 in WNW 6.7 mph 16 mph 53.3% 0.00 in 223 W/m2
12:34 42.7 °F 26.8 °F 30.11 in NW 4.4 mph 16 mph 53.1% 0.00 in 218 W/m2
12:39 42.5 °F 27 °F 30.10 in NW 1.7 mph 16 mph 54% 0.00 in 148 W/m2
12:44 42.5 °F 27.1 °F 30.10 in NW 3.3 mph 16 mph 54.2% 0.00 in 151 W/m2
12:49 42.5 °F 27.3 °F 30.10 in WNW 4 mph 16 mph 54.6% 0.00 in 163 W/m2
12:54 42.5 °F 27.7 °F 30.10 in WNW 3.5 mph 16 mph 55.4% 0.00 in 158 W/m2
12:59 42.4 °F 26.9 °F 30.11 in WNW 8 mph 16 mph 53.9% 0.00 in 167 W/m2
13:04 42.3 °F 26.8 °F 30.11 in WNW 7.2 mph 16 mph 54% 0.00 in 178 W/m2
13:09 42.1 °F 26.9 °F 30.10 in NW 6.4 mph 15 mph 54.5% 0.00 in 171 W/m2
13:14 41.9 °F 26.9 °F 30.10 in WNW 4.7 mph 15 mph 54.8% 0.00 in 158 W/m2
13:19 41.8 °F 26.9 °F 30.10 in WNW 4 mph 15 mph 55% 0.00 in 153 W/m2
13:24 41.8 °F 27.6 °F 30.10 in WNW 1.5 mph 15 mph 56.6% 0.00 in 148 W/m2
13:29 41.9 °F 27.6 °F 30.10 in WNW 3.4 mph 15 mph 56.5% 0.00 in 174 W/m2
13:34 42 °F 27.6 °F 30.10 in NW 0.5 mph 15 mph 56.4% 0.00 in 162 W/m2
13:39 42.1 °F 28.4 °F 30.10 in WNW 1.5 mph 12 mph 58% 0.00 in 156 W/m2
13:44 42.2 °F 28.1 °F 30.10 in NW 3.2 mph 12 mph 57% 0.00 in 135 W/m2
13:49 42.2 °F 27.5 °F 30.10 in WNW 2.6 mph 12 mph 55.8% 0.00 in 128 W/m2
13:54 42.1 °F 27.5 °F 30.11 in NNW 1.5 mph 12 mph 55.8% 0.00 in 125 W/m2
13:59 42.1 °F 27.5 °F 30.11 in NW 2.3 mph 12 mph 56% 0.00 in 127 W/m2
14:04 42 °F 27.4 °F 30.11 in NW 2.6 mph 12 mph 55.8% 0.00 in 120 W/m2
14:09 41.8 °F 26.9 °F 30.12 in NW 1.4 mph 10 mph 55.1% 0.00 in 111 W/m2
14:14 41.7 °F 26.7 °F 30.12 in WNW 5.4 mph 13 mph 54.8% 0.00 in 100 W/m2
14:19 41.5 °F 26.4 °F 30.12 in NW 3.8 mph 14 mph 54.5% 0.00 in 95 W/m2
14:24 41.4 °F 26.6 °F 30.12 in NW 1.1 mph 14 mph 55.4% 0.00 in 88 W/m2
14:29 41.3 °F 26.9 °F 30.12 in NW 0.7 mph 14 mph 56.1% 0.00 in 83 W/m2
14:34 41.3 °F 26.9 °F 30.12 in NW 0.2 mph 14 mph 56.3% 0.00 in 79 W/m2
14:39 41.3 °F 26.8 °F 30.12 in WNW 0.7 mph 7 mph 56% 0.00 in 77 W/m2
14:44 41.2 °F 26.6 °F 30.12 in WNW 1 mph 9 mph 55.9% 0.00 in 77 W/m2
14:49 41.1 °F 26.4 °F 30.12 in WNW 0.3 mph 9 mph 55.6% 0.00 in 69 W/m2
14:54 41 °F 26.5 °F 30.13 in WNW 0.4 mph 9 mph 56% 0.00 in 62 W/m2
14:59 40.9 °F 26.5 °F 30.13 in WNW 0.1 mph 9 mph 56.1% 0.00 in 54 W/m2
15:04 40.9 °F 26.4 °F 30.13 in Calm   9 mph 56% 0.00 in 54 W/m2
15:09 40.8 °F 26.5 °F 30.14 in WNW 0.4 mph 6 mph 56.5% 0.00 in 49 W/m2
15:14 40.7 °F 26.6 °F 30.14 in WNW 0.4 mph 6 mph 56.8% 0.00 in 44 W/m2
15:19 40.7 °F 26.5 °F 30.14 in Calm   6 mph 56.7% 0.00 in 40 W/m2
15:24 40.6 °F 26.4 °F 30.14 in WNW 0.1 mph 6 mph 56.5% 0.00 in 37 W/m2
15:29 40.6 °F 26.5 °F 30.14 in WNW 0.5 mph 6 mph 56.8% 0.00 in 33 W/m2
15:34 40.4 °F 26.2 °F 30.14 in WNW 0.1 mph 6 mph 56.5% 0.00 in 28 W/m2
15:39 40.4 °F 26.1 °F 30.14 in Calm   1 mph 56.3% 0.00 in 25 W/m2
15:44 40.2 °F 25.9 °F 30.14 in Calm   1 mph 56.2% 0.00 in 21 W/m2
15:49 40.2 °F 26.3 °F 30.14 in Calm   1 mph 57.3% 0.00 in 16 W/m2
15:54 40.1 °F 26.3 °F 30.14 in WNW 0.2 mph 4 mph 57.5% 0.00 in 14 W/m2
15:59 40 °F 26 °F 30.14 in NW 0.1 mph 4 mph 57% 0.00 in 11 W/m2
16:00 39.9 °F 25.9 °F 30.14 in Calm   4 mph 57% 0.00 in 5 W/m2
16:09 39.7 °F 26 °F 30.15 in Calm   1 mph 57.7% 0.00 in 5 W/m2
16:14 39.6 °F 26.1 °F 30.15 in Calm   1 mph 58% 0.00 in 0 W/m2
16:19 39.5 °F 26 °F 30.15 in Calm   1 mph 58% 0.00 in 0 W/m2
16:24 39.5 °F 26.1 °F 30.15 in Calm   1 mph 58.5% 0.00 in 0 W/m2
16:29 39.4 °F 25.8 °F 30.16 in Calm   1 mph 58% 0.00 in 0 W/m2
16:34 39.2 °F 26 °F 30.16 in Calm   1 mph 58.8% 0.00 in 0 W/m2
16:39 39.1 °F 26 °F 30.15 in Calm     59% 0.00 in 0 W/m2
16:44 39.1 °F 26 °F 30.15 in Calm     59% 0.00 in 0 W/m2
16:49 39 °F 26.1 °F 30.15 in Calm     59.5% 0.00 in 0 W/m2
16:54 38.9 °F 26.2 °F 30.16 in Calm     60% 0.00 in 0 W/m2
16:59 38.8 °F 26.2 °F 30.16 in Calm     60.4% 0.00 in 0 W/m2
17:04 38.7 °F 26.3 °F 30.15 in Calm     60.6% 0.00 in 0 W/m2
17:09 38.6 °F 26.3 °F 30.15 in Calm     61% 0.00 in 0 W/m2
17:14 38.4 °F 26 °F 30.15 in Calm     60.5% 0.00 in 0 W/m2
17:19 38.3 °F 26.1 °F 30.15 in Calm     61% 0.00 in 0 W/m2
17:24 38.2 °F 26 °F 30.16 in Calm     61% 0.00 in 0 W/m2
17:29 38.1 °F 26.2 °F 30.16 in Calm     61.9% 0.00 in 0 W/m2
17:34 38 °F 26.5 °F 30.17 in Calm     63% 0.00 in 0 W/m2
17:39 37.9 °F 26.4 °F 30.16 in Calm     63% 0.00 in 0 W/m2
17:44 37.8 °F 26 °F 30.16 in Calm     62.1% 0.00 in 0 W/m2
17:49 37.7 °F 26.1 °F 30.16 in Calm     62.6% 0.00 in 0 W/m2
17:54 37.6 °F 26.2 °F 30.16 in Calm     63% 0.00 in 0 W/m2
17:59 37.5 °F 26.6 °F 30.16 in Calm     64.5% 0.00 in 0 W/m2
18:04 37.2 °F 26.5 °F 30.15 in Calm     65% 0.00 in 0 W/m2
18:09 37 °F 26.3 °F 30.15 in Calm     65% 0.00 in 0 W/m2
18:14 36.8 °F 26.1 °F 30.15 in Calm     65% 0.00 in 0 W/m2
18:19 36.5 °F 26.1 °F 30.15 in Calm     65.4% 0.00 in 0 W/m2
18:24 36.4 °F 26.1 °F 30.15 in Calm     66% 0.00 in 0 W/m2
18:29 36.1 °F 26.1 °F 30.15 in Calm     66.7% 0.00 in 0 W/m2
18:34 35.9 °F 26.2 °F 30.15 in Calm     67.6% 0.00 in 0 W/m2
18:39 35.6 °F 26.4 °F 30.15 in Calm     68.8% 0.00 in 0 W/m2
18:44 35.4 °F 26.3 °F 30.15 in Calm     69.1% 0.00 in 0 W/m2
18:49 35.2 °F 26.4 °F 30.15 in Calm     70% 0.00 in 0 W/m2
18:54 34.9 °F 26.1 °F 30.15 in Calm     70% 0.00 in 0 W/m2
18:59 34.7 °F 26.2 °F 30.16 in Calm     70.8% 0.00 in 0 W/m2
19:04 34.4 °F 26 °F 30.16 in Calm     71.1% 0.00 in 0 W/m2
19:09 34.1 °F 26 °F 30.17 in Calm     72% 0.00 in 0 W/m2
19:14 33.8 °F 26 °F 30.17 in Calm     73% 0.00 in 0 W/m2
19:19 33.5 °F 25.9 °F 30.17 in Calm     73.4% 0.00 in 0 W/m2
19:24 33.2 °F 25.8 °F 30.17 in Calm     74% 0.00 in 0 W/m2
19:29 32.9 °F 25.6 °F 30.17 in Calm     74.3% 0.00 in 0 W/m2
19:34 32.7 °F 25.6 °F 30.17 in Calm     75% 0.00 in 0 W/m2
19:39 32.5 °F 25.6 °F 30.17 in Calm     75.4% 0.00 in 0 W/m2
19:40 32.5 °F 25.8 °F 30.17 in Calm     76% 0.00 in 0 W/m2
20:09 32.1 °F 26 °F 30.16 in Calm     78% 0.00 in 0 W/m2
20:14 32 °F 26.2 °F 30.16 in Calm     79% 0.00 in 0 W/m2
20:19 31.8 °F 26.1 °F 30.16 in Calm     79% 0.00 in 0 W/m2
20:24 31.7 °F 25.9 °F 30.16 in Calm     79% 0.00 in 0 W/m2
20:29 31.5 °F 25.8 °F 30.17 in Calm     79% 0.00 in 0 W/m2
20:34 31.3 °F 25.6 °F 30.17 in Calm     79% 0.00 in 0 W/m2
20:39 31.2 °F 25.6 °F 30.16 in Calm     79.6% 0.00 in 0 W/m2
20:44 31.1 °F 25.7 °F 30.16 in Calm     80% 0.00 in 0 W/m2
20:49 31 °F 25.6 °F 30.16 in Calm     80% 0.00 in 0 W/m2
20:54 31 °F 25.5 °F 30.16 in Calm     80% 0.00 in 0 W/m2
20:59 30.9 °F 25.4 °F 30.16 in Calm     80% 0.00 in 0 W/m2
21:04 30.8 °F 25.3 °F 30.16 in Calm     80% 0.00 in 0 W/m2
21:09 30.7 °F 25.5 °F 30.16 in Calm     80.8% 0.00 in 0 W/m2
21:14 30.5 °F 25.4 °F 30.16 in Calm     81% 0.00 in 0 W/m2
21:19 30.4 °F 25.3 °F 30.16 in Calm     81% 0.00 in 0 W/m2
21:24 30.3 °F 25.2 °F 30.16 in Calm     81% 0.00 in 0 W/m2
21:29 30.3 °F 25.2 °F 30.16 in Calm     81% 0.00 in 0 W/m2
21:34 30.2 °F 25.1 °F 30.15 in Calm     81.1% 0.00 in 0 W/m2
21:39 30.2 °F 25.4 °F 30.15 in Calm     82% 0.00 in 0 W/m2
21:44 30.1 °F 25.3 °F 30.16 in Calm     82% 0.00 in 0 W/m2
21:49 30.1 °F 25.5 °F 30.16 in Calm     82.8% 0.00 in 0 W/m2
21:54 30 °F 25.5 °F 30.16 in Calm     83% 0.00 in 0 W/m2
21:59 29.9 °F 25.4 °F 30.16 in Calm     83% 0.00 in 0 W/m2
22:04 29.9 °F 25.5 °F 30.16 in Calm     83.3% 0.00 in 0 W/m2
22:09 29.8 °F 25.6 °F 30.16 in Calm     84% 0.00 in 0 W/m2
22:14 29.7 °F 25.5 °F 30.16 in Calm     84% 0.00 in 0 W/m2
22:19 29.6 °F 25.4 °F 30.17 in Calm     84% 0.00 in 0 W/m2
22:24 29.5 °F 25.3 °F 30.17 in Calm     84% 0.00 in 0 W/m2
22:29 29.4 °F 25.3 °F 30.17 in Calm     84.3% 0.00 in 0 W/m2
22:34 29.3 °F 25.4 °F 30.16 in Calm     85% 0.00 in 0 W/m2
22:39 29.3 °F 25.4 °F 30.17 in Calm     85% 0.00 in 0 W/m2
22:44 29.3 °F 25.5 °F 30.16 in Calm     85.5% 0.00 in 0 W/m2
22:49 29.3 °F 25.6 °F 30.16 in Calm     86% 0.00 in 0 W/m2
22:54 29.3 °F 25.6 °F 30.16 in Calm     86% 0.00 in 0 W/m2
22:59 29.4 °F 25.7 °F 30.16 in Calm     86% 0.00 in 0 W/m2
23:09 29.4 °F 25.7 °F 30.16 in Calm     86% 0.00 in 0 W/m2
23:14 29.4 °F 25.7 °F 30.16 in Calm     86% 0.00 in 0 W/m2
23:19 29.4 °F 25.7 °F 30.16 in Calm     86% 0.00 in 0 W/m2
23:24 29.3 °F 25.6 °F 30.16 in Calm     86% 0.00 in 0 W/m2
23:29 29.2 °F 25.6 °F 30.16 in Calm     86% 0.00 in 0 W/m2
23:34 29.2 °F 25.5 °F 30.16 in Calm     86% 0.00 in 0 W/m2
23:39 29.1 °F 25.4 °F 30.16 in Calm     86% 0.00 in 0 W/m2
23:44 29 °F 25.4 °F 30.16 in Calm     86% 0.00 in 0 W/m2
23:49 28.9 °F 25.3 °F 30.17 in Calm     86% 0.00 in 0 W/m2
23:54 28.8 °F 25.1 °F 30.17 in Calm     86% 0.00 in 0 W/m2
23:59 28.6 °F 25 °F 30.17 in Calm     86% 0.00 in 0 W/m2
Hartford County Weather
Compliments of Weather Underground - 4 mb